createdAt,value
2023-01-13T00:01:07.600Z,11.18
2023-01-13T00:03:36.800Z,11.19
2023-01-13T00:06:05.064Z,11.20
2023-01-13T00:08:33.375Z,11.04
2023-01-13T00:11:01.130Z,11.24
2023-01-13T00:13:29.393Z,11.34
2023-01-13T00:15:58.243Z,11.30
2023-01-13T00:18:26.654Z,10.94
2023-01-13T00:21:03.077Z,11.18
2023-01-13T00:23:33.021Z,11.02
2023-01-13T00:26:03.747Z,11.23
2023-01-13T00:28:31.592Z,10.95
2023-01-13T00:31:06.067Z,12.78
2023-01-13T00:33:33.942Z,12.63
2023-01-13T00:36:04.535Z,11.31
2023-01-13T00:38:33.674Z,10.76
2023-01-13T00:41:03.483Z,10.96
2023-01-13T00:43:32.557Z,11.13
2023-01-13T00:46:00.864Z,10.83
2023-01-13T00:48:29.658Z,10.72
2023-01-13T00:50:57.749Z,10.76
2023-01-13T00:53:27.977Z,11.05
2023-01-13T00:56:02.610Z,11.20
2023-01-13T00:58:32.871Z,11.02
2023-01-13T01:01:01.970Z,11.07
2023-01-13T01:03:30.648Z,11.33
2023-01-13T01:05:58.696Z,10.86
2023-01-13T01:08:27.801Z,11.03
2023-01-13T01:11:02.328Z,10.78
2023-01-13T01:13:30.165Z,10.98
2023-01-13T01:15:57.940Z,11.24
2023-01-13T01:18:25.790Z,11.01
2023-01-13T01:20:53.910Z,10.62
2023-01-13T01:23:21.712Z,10.75
2023-01-13T01:25:50.839Z,10.63
2023-01-13T01:28:20.606Z,10.67
2023-01-13T01:30:48.473Z,10.59
2023-01-13T01:33:16.842Z,10.59
2023-01-13T01:35:44.602Z,10.45
2023-01-13T01:38:12.473Z,10.52
2023-01-13T01:40:40.411Z,10.59
2023-01-13T01:43:32.902Z,10.81
2023-01-13T01:46:00.662Z,10.67
2023-01-13T01:48:30.603Z,10.57
2023-01-13T01:50:58.511Z,10.42
2023-01-13T01:53:29.929Z,10.29
2023-01-13T01:56:00.380Z,10.47
2023-01-13T01:58:32.266Z,10.26
2023-01-13T02:01:00.592Z,10.49
2023-01-13T02:03:28.511Z,10.77
2023-01-13T02:05:56.642Z,10.57
2023-01-13T02:08:24.428Z,10.77
2023-01-13T02:10:55.197Z,10.61
2023-01-13T02:13:23.119Z,10.76
2023-01-13T02:15:58.733Z,10.69
2023-01-13T02:18:38.575Z,10.49
2023-01-13T02:21:35.275Z,10.41
2023-01-13T02:24:56.378Z,10.46
2023-01-13T02:27:48.980Z,10.46
2023-01-13T02:30:44.746Z,10.55
2023-01-13T02:33:23.513Z,10.76
2023-01-13T02:35:58.448Z,10.55
2023-01-13T02:38:32.450Z,10.09
2023-01-13T02:41:25.867Z,10.21
2023-01-13T02:44:07.664Z,10.30
2023-01-13T02:46:43.651Z,10.55
2023-01-13T02:49:15.374Z,10.17
2023-01-13T02:51:46.797Z,10.28
2023-01-13T02:54:19.157Z,10.51
2023-01-13T02:56:50.979Z,10.52
2023-01-13T02:59:20.680Z,10.61
2023-01-13T03:01:51.000Z,10.34
2023-01-13T03:04:47.196Z,9.73
2023-01-13T03:07:40.360Z,9.77
2023-01-13T03:10:13.637Z,9.22
2023-01-13T03:12:55.901Z,9.42
2023-01-13T03:15:30.600Z,9.92
2023-01-13T03:18:09.820Z,9.91
2023-01-13T03:20:47.597Z,10.16
2023-01-13T03:23:20.392Z,9.85
2023-01-13T03:25:55.509Z,9.90
2023-01-13T03:28:29.852Z,9.56
2023-01-13T03:31:02.704Z,9.61
2023-01-13T03:33:37.367Z,9.71
2023-01-13T03:36:09.817Z,9.51
2023-01-13T03:38:42.631Z,9.62
2023-01-13T03:41:14.518Z,9.52
2023-01-13T03:44:03.736Z,9.69
2023-01-13T03:46:38.250Z,9.10
2023-01-13T03:49:10.778Z,9.63
2023-01-13T03:51:42.272Z,9.39
2023-01-13T03:54:12.788Z,9.26
2023-01-13T03:56:43.970Z,9.31
2023-01-13T03:59:19.985Z,9.42
2023-01-13T04:01:53.972Z,9.38
2023-01-13T04:04:30.120Z,9.17
2023-01-13T04:07:03.100Z,9.33
2023-01-13T04:09:35.803Z,9.15
2023-01-13T04:12:16.719Z,9.21
2023-01-13T04:14:46.264Z,9.25
2023-01-13T04:17:14.396Z,9.26
2023-01-13T04:19:43.591Z,9.28
2023-01-13T04:22:11.380Z,9.03
2023-01-13T04:24:39.119Z,9.04
2023-01-13T04:27:07.227Z,9.04
2023-01-13T04:29:35.038Z,8.80
2023-01-13T04:32:02.823Z,8.98
2023-01-13T04:34:30.578Z,8.81
2023-01-13T04:36:59.734Z,8.82
2023-01-13T04:39:27.611Z,8.81
2023-01-13T04:42:02.482Z,8.92
2023-01-13T04:44:31.734Z,8.96
2023-01-13T04:46:59.560Z,9.78
2023-01-13T04:49:27.360Z,9.71
2023-01-13T04:51:55.294Z,9.91
2023-01-13T04:54:24.438Z,10.06
2023-01-13T04:56:52.245Z,9.75
2023-01-13T04:59:19.985Z,9.56
2023-01-13T05:01:47.850Z,9.34
2023-01-13T05:04:17.006Z,9.37
2023-01-13T05:06:44.770Z,9.27
2023-01-13T05:09:15.519Z,9.45
2023-01-13T05:12:02.348Z,9.27
2023-01-13T05:14:47.577Z,9.10
2023-01-13T05:17:20.989Z,9.38
2023-01-13T05:19:48.760Z,9.34
2023-01-13T05:22:34.244Z,9.18
2023-01-13T05:25:19.825Z,9.32
2023-01-13T05:27:49.349Z,8.99
2023-01-13T05:30:18.692Z,9.17
2023-01-13T05:32:46.499Z,9.29
2023-01-13T05:35:15.989Z,9.37
2023-01-13T05:37:44.048Z,9.17
2023-01-13T05:40:30.912Z,9.43
2023-01-13T05:43:22.831Z,9.14
2023-01-13T05:45:52.806Z,9.23
2023-01-13T05:48:22.128Z,9.36
2023-01-13T05:50:50.273Z,9.21
2023-01-13T05:53:19.039Z,9.08
2023-01-13T05:55:47.206Z,9.32
2023-01-13T05:58:18.039Z,9.13
2023-01-13T06:00:47.063Z,9.20
2023-01-13T06:03:15.989Z,8.72
2023-01-13T06:05:45.375Z,9.02
2023-01-13T06:08:13.304Z,8.67
2023-01-13T06:10:41.085Z,8.61
2023-01-13T06:13:08.916Z,9.12
2023-01-13T06:15:38.085Z,9.17
2023-01-13T06:18:06.785Z,9.09
2023-01-13T06:20:34.785Z,8.87
2023-01-13T06:23:02.657Z,9.05
2023-01-13T06:25:39.171Z,9.14
2023-01-13T06:28:07.140Z,9.13
2023-01-13T06:30:39.824Z,9.30
2023-01-13T06:33:13.353Z,9.35
2023-01-13T06:35:44.997Z,9.45
2023-01-13T06:38:16.888Z,9.10
2023-01-13T06:40:44.804Z,9.41
2023-01-13T06:43:17.789Z,9.27
2023-01-13T06:45:51.582Z,9.23
2023-01-13T06:48:21.200Z,9.77
2023-01-13T06:50:49.076Z,9.87
2023-01-13T06:53:16.822Z,9.69
2023-01-13T06:55:44.664Z,9.69
2023-01-13T06:58:12.745Z,10.17
2023-01-13T07:00:40.741Z,9.86
2023-01-13T07:03:12.146Z,9.96
2023-01-13T07:05:40.760Z,9.97
2023-01-13T07:08:09.514Z,9.51
2023-01-13T07:10:38.343Z,9.37
2023-01-13T07:13:24.793Z,9.22
2023-01-13T07:15:57.103Z,8.82
2023-01-13T07:18:27.850Z,9.00
2023-01-13T07:20:57.343Z,9.02
2023-01-13T07:23:26.614Z,8.97
2023-01-13T07:25:56.230Z,8.73
2023-01-13T07:28:24.093Z,8.80
2023-01-13T07:30:52.275Z,8.82
2023-01-13T07:33:20.387Z,9.11
2023-01-13T07:35:50.188Z,8.70
2023-01-13T07:38:18.034Z,8.72
2023-01-13T07:40:45.842Z,8.63
2023-01-13T07:43:31.916Z,8.79
2023-01-13T07:46:01.122Z,9.00
2023-01-13T07:48:29.090Z,8.80
2023-01-13T07:51:02.525Z,8.84
2023-01-13T07:53:30.417Z,8.86
2023-01-13T07:55:58.910Z,8.72
2023-01-13T07:58:27.524Z,8.64
2023-01-13T08:00:55.856Z,9.11
2023-01-13T08:03:23.975Z,8.96
2023-01-13T08:05:52.059Z,8.85
2023-01-13T08:08:21.253Z,8.95
2023-01-13T08:10:49.127Z,9.04
2023-01-13T08:13:20.054Z,8.95
2023-01-13T08:15:50.281Z,8.98
2023-01-13T08:18:21.192Z,8.85
2023-01-13T08:20:49.854Z,8.99
2023-01-13T08:23:17.839Z,9.30
2023-01-13T08:25:47.241Z,9.11
2023-01-13T08:28:16.864Z,9.48
2023-01-13T08:30:45.107Z,9.73
2023-01-13T08:33:14.132Z,9.27
2023-01-13T08:35:42.962Z,9.49
2023-01-13T08:38:11.144Z,9.53
2023-01-13T08:40:40.443Z,9.36
2023-01-13T08:43:09.671Z,9.29
2023-01-13T08:45:37.491Z,9.56
2023-01-13T08:48:05.930Z,9.18
2023-01-13T08:50:33.900Z,9.58
2023-01-13T08:53:01.833Z,9.50
2023-01-13T08:55:29.665Z,9.05
2023-01-13T08:58:14.217Z,9.68
2023-01-13T09:00:45.321Z,9.38
2023-01-13T09:03:13.145Z,9.29
2023-01-13T09:05:40.947Z,9.60
2023-01-13T09:08:08.801Z,9.52
2023-01-13T09:10:36.889Z,9.52
2023-01-13T09:13:12.635Z,9.25
2023-01-13T09:15:42.348Z,9.34
2023-01-13T09:18:12.047Z,9.27
2023-01-13T09:20:40.239Z,9.76
2023-01-13T09:23:10.720Z,9.51
2023-01-13T09:25:39.413Z,9.79
2023-01-13T09:28:08.365Z,9.34
2023-01-13T09:30:37.851Z,9.44
2023-01-13T09:33:23.241Z,9.40
2023-01-13T09:35:52.424Z,9.53
2023-01-13T09:38:20.184Z,9.62
2023-01-13T09:40:50.053Z,9.61
2023-01-13T09:43:39.565Z,9.37
2023-01-13T09:46:36.100Z,9.64
2023-01-13T09:49:04.578Z,9.93
2023-01-13T09:51:40.987Z,9.37
2023-01-13T09:54:16.861Z,9.78
2023-01-13T09:56:44.709Z,9.85
2023-01-13T09:59:13.616Z,9.67
2023-01-13T10:01:52.598Z,9.77
2023-01-13T10:04:20.747Z,9.56
2023-01-13T10:06:56.502Z,9.62
2023-01-13T10:09:31.454Z,10.08
2023-01-13T10:12:18.507Z,9.96
2023-01-13T10:14:52.617Z,9.78
2023-01-13T10:17:29.823Z,10.06
2023-01-13T10:20:04.980Z,10.23
2023-01-13T10:22:49.121Z,10.00
2023-01-13T10:25:32.611Z,10.07
2023-01-13T10:28:09.034Z,10.06
2023-01-13T10:30:40.098Z,9.90
2023-01-13T10:33:13.876Z,10.16
2023-01-13T10:35:56.719Z,9.64
2023-01-13T10:38:28.916Z,9.83
2023-01-13T10:40:59.008Z,9.88
2023-01-13T10:43:28.216Z,9.90
2023-01-13T10:46:02.071Z,9.78
2023-01-13T10:48:39.293Z,9.72
2023-01-13T10:51:22.131Z,10.16
2023-01-13T10:53:58.084Z,9.98
2023-01-13T10:56:27.891Z,10.04
2023-01-13T10:59:13.387Z,10.59
2023-01-13T11:01:43.322Z,10.96
2023-01-13T11:04:29.861Z,10.85
2023-01-13T11:06:58.483Z,10.54
2023-01-13T11:09:30.774Z,10.54
2023-01-13T11:12:00.158Z,10.31
2023-01-13T11:14:39.466Z,10.81
2023-01-13T11:17:30.188Z,11.76
2023-01-13T11:20:05.012Z,12.22
2023-01-13T11:22:38.816Z,12.75
2023-01-13T11:25:12.615Z,12.51
2023-01-13T11:27:44.438Z,12.49
2023-01-13T11:30:22.512Z,11.47
2023-01-13T11:33:04.805Z,11.25
2023-01-13T11:35:36.989Z,11.20
2023-01-13T11:38:14.337Z,11.02
2023-01-13T11:40:47.481Z,10.96
2023-01-13T11:43:22.790Z,10.96
2023-01-13T11:45:53.554Z,10.59
2023-01-13T11:48:26.892Z,10.37
2023-01-13T11:51:01.145Z,9.92
2023-01-13T11:53:46.551Z,9.43
2023-01-13T11:56:35.338Z,8.43
2023-01-13T11:59:18.507Z,8.25
2023-01-13T12:02:01.715Z,8.25
2023-01-13T12:04:37.555Z,8.39
2023-01-13T12:07:15.138Z,8.51
2023-01-13T12:09:56.880Z,8.58
2023-01-13T12:12:43.519Z,9.04
2023-01-13T12:15:29.174Z,9.27
2023-01-13T12:18:12.716Z,9.09
2023-01-13T12:20:49.553Z,9.09
2023-01-13T12:23:34.033Z,8.87
2023-01-13T12:26:08.193Z,8.98
2023-01-13T12:28:45.790Z,9.08
2023-01-13T12:31:15.208Z,9.07
2023-01-13T12:33:55.719Z,8.73
2023-01-13T12:36:29.224Z,8.79
2023-01-13T12:38:59.941Z,8.62
2023-01-13T12:42:00.335Z,8.63
2023-01-13T12:44:28.673Z,8.21
2023-01-13T12:46:57.709Z,8.52
2023-01-13T12:49:31.025Z,8.22
2023-01-13T12:52:20.109Z,8.32
2023-01-13T12:55:20.356Z,8.32
2023-01-13T12:58:13.420Z,8.56
2023-01-13T13:00:58.893Z,8.52
2023-01-13T13:03:35.470Z,8.62
2023-01-13T13:06:17.540Z,8.76
2023-01-13T13:08:51.676Z,8.93
2023-01-13T13:11:52.670Z,8.66
2023-01-13T13:14:50.252Z,8.68
2023-01-13T13:17:44.373Z,8.80
2023-01-13T13:20:53.720Z,9.74
2023-01-13T13:23:39.892Z,12.51
2023-01-13T13:26:20.065Z,13.25
2023-01-13T13:29:00.750Z,14.19
2023-01-13T13:31:39.069Z,13.87
2023-01-13T13:34:20.639Z,13.13
2023-01-13T13:37:21.328Z,11.54
2023-01-13T13:40:06.920Z,12.05
2023-01-13T13:43:00.050Z,11.13
2023-01-13T13:46:00.645Z,10.76
2023-01-13T13:48:30.730Z,9.96
2023-01-13T13:51:03.650Z,9.99
2023-01-13T13:53:35.327Z,9.42
2023-01-13T13:56:08.222Z,9.08
2023-01-13T13:58:37.168Z,9.64
2023-01-13T14:01:06.454Z,9.31
2023-01-13T14:03:40.023Z,9.57
2023-01-13T14:06:23.661Z,9.17
2023-01-13T14:08:51.679Z,9.61
2023-01-13T14:11:27.399Z,9.16
2023-01-13T14:14:05.493Z,9.51
2023-01-13T14:16:36.114Z,9.93
2023-01-13T14:19:04.219Z,10.06
2023-01-13T14:21:33.689Z,9.66
2023-01-13T14:24:10.698Z,9.47
2023-01-13T14:26:39.269Z,9.66
2023-01-13T14:29:07.470Z,8.89
2023-01-13T14:31:35.899Z,9.26
2023-01-13T14:34:32.213Z,8.78
2023-01-13T14:36:57.350Z,9.08
2023-01-13T14:39:33.610Z,9.03
2023-01-13T14:42:01.715Z,8.76
2023-01-13T14:44:31.912Z,8.87
2023-01-13T14:47:02.579Z,8.73
2023-01-13T14:49:35.897Z,8.96
2023-01-13T14:52:08.517Z,8.87
2023-01-13T14:54:50.808Z,8.48
2023-01-13T14:57:27.541Z,8.51
2023-01-13T15:00:18.840Z,8.59
2023-01-13T15:02:48.811Z,8.74
2023-01-13T15:05:47.658Z,8.67
2023-01-13T15:08:36.996Z,8.89
2023-01-13T15:11:07.545Z,8.87
2023-01-13T15:13:47.393Z,8.86
2023-01-13T15:16:24.731Z,8.65
2023-01-13T15:18:53.108Z,8.59
2023-01-13T15:21:21.135Z,8.61
2023-01-13T15:23:50.492Z,8.79
2023-01-13T15:26:22.265Z,8.26
2023-01-13T15:28:51.483Z,8.57
2023-01-13T15:31:20.034Z,8.39
2023-01-13T15:33:48.124Z,8.14
2023-01-13T15:36:23.372Z,8.53
2023-01-13T15:38:52.867Z,8.42
2023-01-13T15:41:41.754Z,8.45
2023-01-13T15:44:29.828Z,8.15
2023-01-13T15:46:58.570Z,8.34
2023-01-13T15:49:34.645Z,7.92
2023-01-13T15:52:03.486Z,8.09
2023-01-13T15:54:32.647Z,8.31
2023-01-13T15:57:00.449Z,8.08
2023-01-13T15:59:29.010Z,7.85
2023-01-13T16:01:56.845Z,8.23
2023-01-13T16:04:24.738Z,8.14
2023-01-13T16:06:52.531Z,8.40
2023-01-13T16:09:20.894Z,8.15
2023-01-13T16:11:50.015Z,8.55
2023-01-13T16:14:18.400Z,8.25
2023-01-13T16:16:46.298Z,8.74
2023-01-13T16:19:14.116Z,8.74
2023-01-13T16:21:42.732Z,8.57
2023-01-13T16:24:10.605Z,8.21
2023-01-13T16:26:38.919Z,8.06
2023-01-13T16:29:09.537Z,8.50
2023-01-13T16:31:37.330Z,8.04
2023-01-13T16:34:06.277Z,8.45
2023-01-13T16:36:36.918Z,8.14
2023-01-13T16:39:05.640Z,8.59
2023-01-13T16:41:34.553Z,8.37
2023-01-13T16:44:05.886Z,8.25
2023-01-13T16:46:35.238Z,8.53
2023-01-13T16:49:04.967Z,8.28
2023-01-13T16:51:33.634Z,8.79
2023-01-13T16:54:01.440Z,8.69
2023-01-13T16:56:30.644Z,8.44
2023-01-13T16:59:01.284Z,8.70
2023-01-13T17:01:30.950Z,8.64
2023-01-13T17:04:01.114Z,8.66
2023-01-13T17:06:32.807Z,8.40
2023-01-13T17:09:06.392Z,8.51
2023-01-13T17:11:35.015Z,8.63
2023-01-13T17:14:18.615Z,9.08
2023-01-13T17:16:47.555Z,8.23
2023-01-13T17:19:17.156Z,8.61
2023-01-13T17:21:47.040Z,8.73
2023-01-13T17:24:15.113Z,8.39
2023-01-13T17:26:47.007Z,8.54
2023-01-13T17:29:16.664Z,8.68
2023-01-13T17:31:44.675Z,8.84
2023-01-13T17:34:13.319Z,8.64
2023-01-13T17:36:43.696Z,8.28
2023-01-13T17:39:16.950Z,8.37
2023-01-13T17:41:44.848Z,7.98
2023-01-13T17:44:14.240Z,8.26
2023-01-13T17:46:42.278Z,8.37
2023-01-13T17:49:10.845Z,7.89
2023-01-13T17:51:38.681Z,8.57
2023-01-13T17:54:11.911Z,8.71
2023-01-13T17:56:40.267Z,8.55
2023-01-13T17:59:10.103Z,8.41
2023-01-13T18:01:38.723Z,8.41
2023-01-13T18:04:07.561Z,8.44
2023-01-13T18:06:35.627Z,8.79
2023-01-13T18:09:03.450Z,8.37
2023-01-13T18:11:32.641Z,8.48
2023-01-13T18:14:00.474Z,8.84
2023-01-13T18:16:30.412Z,8.32
2023-01-13T18:19:19.369Z,8.81
2023-01-13T18:22:05.329Z,8.47
2023-01-13T18:24:51.157Z,8.41
2023-01-13T18:27:26.529Z,8.59
2023-01-13T18:29:55.900Z,8.85
2023-01-13T18:32:26.360Z,8.77
2023-01-13T18:35:05.080Z,8.84
2023-01-13T18:37:35.708Z,8.86
2023-01-13T18:40:04.015Z,8.97
2023-01-13T18:42:50.607Z,8.77
2023-01-13T18:45:19.054Z,8.52
2023-01-13T18:47:46.867Z,8.73
2023-01-13T18:50:14.747Z,8.75
2023-01-13T18:52:42.606Z,8.61
2023-01-13T18:55:11.058Z,8.69
2023-01-13T18:57:40.982Z,8.94
2023-01-13T19:00:11.331Z,8.63
2023-01-13T19:02:39.758Z,8.76
2023-01-13T19:05:08.259Z,8.89
2023-01-13T19:07:36.705Z,8.75
2023-01-13T19:10:06.252Z,9.05
2023-01-13T19:12:34.029Z,8.86
2023-01-13T19:15:03.457Z,8.59
2023-01-13T19:17:33.708Z,8.55
2023-01-13T19:20:02.138Z,9.29
2023-01-13T19:22:32.611Z,8.76
2023-01-13T19:25:01.812Z,8.60
2023-01-13T19:27:30.688Z,8.93
2023-01-13T19:30:00.312Z,8.99
2023-01-13T19:32:30.873Z,8.61
2023-01-13T19:34:59.717Z,8.94
2023-01-13T19:37:30.293Z,9.02
2023-01-13T19:39:59.206Z,8.98
2023-01-13T19:42:45.128Z,9.28
2023-01-13T19:45:31.755Z,9.04
2023-01-13T19:48:04.694Z,9.16
2023-01-13T19:50:36.019Z,8.91
2023-01-13T19:53:03.911Z,8.85
2023-01-13T19:55:32.001Z,9.12
2023-01-13T19:58:00.150Z,9.17
2023-01-13T20:00:28.005Z,9.04
2023-01-13T20:03:00.559Z,9.31
2023-01-13T20:05:29.929Z,9.25
2023-01-13T20:07:57.657Z,8.86
2023-01-13T20:10:25.484Z,9.12
2023-01-13T20:12:53.302Z,9.32
2023-01-13T20:15:21.088Z,9.10
2023-01-13T20:17:49.059Z,9.39
2023-01-13T20:20:18.511Z,9.32
2023-01-13T20:22:49.573Z,9.12
2023-01-13T20:25:18.637Z,9.54
2023-01-13T20:27:47.672Z,9.21
2023-01-13T20:30:16.369Z,9.22
2023-01-13T20:32:45.060Z,9.08
2023-01-13T20:35:13.002Z,9.35
2023-01-13T20:37:42.049Z,9.44
2023-01-13T20:40:15.494Z,9.01
2023-01-13T20:42:45.286Z,9.57
2023-01-13T20:45:17.098Z,9.52
2023-01-13T20:47:45.953Z,9.52
2023-01-13T20:50:14.402Z,9.13
2023-01-13T20:52:42.319Z,9.11
2023-01-13T20:55:12.011Z,9.11
2023-01-13T20:57:40.118Z,9.21
2023-01-13T21:00:10.154Z,9.44
2023-01-13T21:02:40.413Z,9.09
2023-01-13T21:05:09.194Z,9.32
2023-01-13T21:07:37.039Z,9.13
2023-01-13T21:10:05.241Z,8.88
2023-01-13T21:12:52.056Z,9.27
2023-01-13T21:15:20.093Z,9.08
2023-01-13T21:18:06.200Z,9.29
2023-01-13T21:20:34.647Z,9.09
2023-01-13T21:23:03.606Z,8.99
2023-01-13T21:25:35.150Z,9.09
2023-01-13T21:28:07.199Z,9.21
2023-01-13T21:30:35.986Z,9.08
2023-01-13T21:33:04.173Z,9.29
2023-01-13T21:35:32.122Z,9.16
2023-01-13T21:37:59.998Z,8.75
2023-01-13T21:40:28.000Z,8.83
2023-01-13T21:43:13.153Z,8.92
2023-01-13T21:46:00.327Z,8.77
2023-01-13T21:48:28.148Z,9.34
2023-01-13T21:50:55.846Z,9.17
2023-01-13T21:53:23.589Z,9.20
2023-01-13T21:55:52.520Z,8.93
2023-01-13T21:58:20.340Z,9.45
2023-01-13T22:00:49.991Z,9.48
2023-01-13T22:03:18.644Z,9.14
2023-01-13T22:05:46.497Z,8.93
2023-01-13T22:08:15.907Z,8.86
2023-01-13T22:10:57.254Z,10.42
2023-01-13T22:13:42.744Z,9.60
2023-01-13T22:16:12.111Z,8.96
2023-01-13T22:18:40.226Z,9.08
2023-01-13T22:21:08.146Z,8.77
2023-01-13T22:23:35.891Z,8.75
2023-01-13T22:26:04.205Z,8.67
2023-01-13T22:28:34.282Z,9.01
2023-01-13T22:31:02.430Z,8.85
2023-01-13T22:33:31.541Z,8.75
2023-01-13T22:35:59.306Z,8.73
2023-01-13T22:38:27.025Z,8.71
2023-01-13T22:40:58.858Z,8.72
2023-01-13T22:43:28.156Z,8.40
2023-01-13T22:45:59.649Z,8.70
2023-01-13T22:48:27.565Z,9.15
2023-01-13T22:50:57.132Z,8.43
2023-01-13T22:53:24.878Z,9.36
2023-01-13T22:55:56.389Z,9.62
2023-01-13T22:58:24.660Z,9.31
2023-01-13T23:00:52.781Z,8.71
2023-01-13T23:03:20.801Z,8.63
2023-01-13T23:05:48.555Z,8.43
2023-01-13T23:08:17.681Z,8.62
2023-01-13T23:10:45.410Z,8.56
2023-01-13T23:13:13.202Z,8.58
2023-01-13T23:15:40.956Z,8.63
2023-01-13T23:18:08.897Z,8.72
2023-01-13T23:20:36.829Z,8.73
2023-01-13T23:23:04.844Z,8.89
2023-01-13T23:25:34.105Z,8.77
2023-01-13T23:28:01.859Z,8.45
2023-01-13T23:30:29.663Z,8.93
2023-01-13T23:32:57.428Z,8.77
2023-01-13T23:35:25.440Z,8.97
2023-01-13T23:37:53.256Z,8.57
2023-01-13T23:40:20.997Z,8.63
2023-01-13T23:42:50.178Z,8.77
2023-01-13T23:45:18.058Z,8.85
2023-01-13T23:47:45.812Z,8.99
2023-01-13T23:50:13.594Z,8.85
2023-01-13T23:52:41.334Z,8.99
2023-01-13T23:55:09.997Z,8.88
2023-01-13T23:57:37.926Z,9.06
